Time;durP1;ratioP1;P1;durP2;ratioP2;P2;SDS_P1;SDS_P2;PMS_P1;PMS_P2;Temp;Humidity;BMP_temperature;BMP_pressure;BME280_temperature;BME280_humidity;BME280_pressure;Samples;Min_cycle;Max_cycle;Signal;HPM_P1;HPM_P2
2022/09/13 00:00:16;;;;;;;;;;;;;;;;;;5138608;27;20011;-83
2022/09/13 00:02:41;;;;;;;;;;;;;;;;;;5138306;27;19972;-83
2022/09/13 00:05:06;;;;;;;;;;;;;;;;;;5136798;27;19919;-84
2022/09/13 00:07:32;;;;;;;;;;;;;;;;;;5119683;27;19945;-84
2022/09/13 00:09:57;;;;;;;;;;;;;;;;;;5138473;27;19998;-84
2022/09/13 00:12:22;;;;;;;;;;;;;;;;;;5136830;27;19916;-84
2022/09/13 00:14:48;;;;;;;;;;;;;;;;;;5119683;27;20320;-85
2022/09/13 00:17:13;;;;;;;;;;;;;;;;;;5136660;27;19915;-84
2022/09/13 00:19:38;;;;;;;;;;;;;;;;;;5136684;27;20375;-83
2022/09/13 00:22:05;;;;;;;;;;;;;;;;;;5140139;27;19915;-83
2022/09/13 00:24:30;;;;;;;;;;;;;;;;;;5141100;27;20298;-83
2022/09/13 00:26:56;;;;;;;;;;;;;;;;;;5140957;27;19915;-84
2022/09/13 00:29:21;;;;;;;;;;;;;;;;;;5142169;27;19970;-83
2022/09/13 00:31:46;;;;;;;;;;;;;;;;;;5142284;27;20395;-83
2022/09/13 00:34:12;;;;;;;;;;;;;;;;;;5161273;27;19919;-82
2022/09/13 00:36:37;;;;;;;;;;;;;;;;;;5161152;27;19941;-83
2022/09/13 00:39:02;;;;;;;;;;;;;;;;;;5160182;27;19918;-83
2022/09/13 00:41:28;;;;;;;;;;;;;;;;;;5152281;27;19970;-83
2022/09/13 00:43:58;;;;;;;;;;;;;;;;;;5156225;27;19919;-84
2022/09/13 00:46:43;;;;;;;;;;;;;;;;;;5151897;27;20399;-82
2022/09/13 00:49:12;;;;;;;;;;;;;;;;;;5156180;27;19904;-83
2022/09/13 00:51:37;;;;;;;;;;;;;;;;;;5140213;27;19915;-83
2022/09/13 00:54:03;;;;;;;;;;;;;;;;;;5136707;27;19916;-83
2022/09/13 00:56:30;;;;;;;;;;;;;;;;;;5136067;27;19919;-82
2022/09/13 00:59:00;;;;;;;;;;;;;;;;;;5136040;27;20331;-83
2022/09/13 01:01:29;;;;;;;;;;;;;;;;;;5135643;27;19923;-83
2022/09/13 01:03:54;;;;;;;;;;;;;;;;;;5135853;27;19915;-83
2022/09/13 01:06:21;;;;;;;;;;;;;;;;;;5118504;27;20002;-83
2022/09/13 01:08:48;;;;;;;;;;;;;;;;;;5118828;27;19972;-82
2022/09/13 01:11:24;;;;;;;;;;;;;;;;;;5135780;27;19915;-83
2022/09/13 01:13:50;;;;;;;;;;;;;;;;;;5136857;27;19915;-83
2022/09/13 01:16:15;;;;;;;;;;;;;;;;;;5135465;27;19916;-84
2022/09/13 01:18:40;;;;;;;;;;;;;;;;;;5135624;27;19920;-83
2022/09/13 01:21:06;;;;;;;;;;;;;;;;;;5136716;27;20117;-82
2022/09/13 01:23:40;;;;;;;;;;;;;;;;;;5136730;27;20009;-82
2022/09/13 01:26:11;;;;;;;;;;;;;;;;;;5136683;27;20028;-83
2022/09/13 01:28:44;;;;;;;;;;;;;;;;;;5136929;27;19939;-83
2022/09/13 01:31:12;;;;;;;;;;;;;;;;;;5135353;27;19916;-83
2022/09/13 01:33:41;;;;;;;;;;;;;;;;;;5137402;27;19915;-83
2022/09/13 01:36:35;;;;;;;;;;;;;;;;;;5136547;27;19915;-83
2022/09/13 01:39:04;;;;;;;;;;;;;;;;;;5122604;27;19915;-83
2022/09/13 01:41:33;;;;;;;;;;;;;;;;;;5135240;27;20024;-83
2022/09/13 01:44:05;;;;;;;;;;;;;;;;;;5136447;27;19954;-83
2022/09/13 01:46:30;;;;;;;;;;;;;;;;;;5135080;27;19915;-82
2022/09/13 01:49:13;;;;;;;;;;;;;;;;;;5136434;27;19915;-83
2022/09/13 01:51:43;;;;;;;;;;;;;;;;;;5134954;27;19915;-83
2022/09/13 01:54:11;;;;;;;;;;;;;;;;;;5136640;27;19915;-83
2022/09/13 01:56:55;;;;;;;;;;;;;;;;;;5135992;27;19956;-83
2022/09/13 01:59:32;;;;;;;;;;;;;;;;;;5135676;27;19966;-83
2022/09/13 02:02:01;;;;;;;;;;;;;;;;;;5135058;27;19919;-83
2022/09/13 02:04:27;;;;;;;;;;;;;;;;;;5136304;27;19947;-83
2022/09/13 02:07:03;;;;;;;;;;;;;;;;;;5134953;27;19941;-82
2022/09/13 02:09:30;;;;;;;;;;;;;;;;;;5117860;27;19915;-83
2022/09/13 02:11:58;;;;;;;;;;;;;;;;;;5117509;27;19916;-84
2022/09/13 02:14:26;;;;;;;;;;;;;;;;;;5134685;27;19964;-84
2022/09/13 02:16:52;;;;;;;;;;;;;;;;;;5133937;27;19915;-83
2022/09/13 02:19:31;;;;;;;;;;;;;;;;;;5134473;27;20051;-83
2022/09/13 02:21:57;;;;;;;;;;;;;;;;;;5135785;27;19922;-83
2022/09/13 02:24:43;;;;;;;;;;;;;;;;;;5134466;28;20320;-83
2022/09/13 02:27:09;;;;;;;;;;;;;;;;;;5135079;27;19916;-83
2022/09/13 02:29:35;;;;;;;;;;;;;;;;;;5134808;28;19932;-83
2022/09/13 02:32:03;;;;;;;;;;;;;;;;;;5136243;27;20005;-83
2022/09/13 02:34:33;;;;;;;;;;;;;;;;;;5134648;28;19911;-83
2022/09/13 02:36:58;;;;;;;;;;;;;;;;;;5134595;28;19915;-83
2022/09/13 02:39:24;;;;;;;;;;;;;;;;;;5135724;27;19946;-83
2022/09/13 02:41:53;;;;;;;;;;;;;;;;;;5117229;28;19966;-83
2022/09/13 02:44:18;;;;;;;;;;;;;;;;;;5135503;27;20306;-83
2022/09/13 02:46:47;;;;;;;;;;;;;;;;;;5135485;27;19919;-84
2022/09/13 02:49:30;;;;;;;;;;;;;;;;;;5134319;28;19938;-83
2022/09/13 02:52:15;;;;;;;;;;;;;;;;;;5134170;28;19915;-82
2022/09/13 02:54:41;;;;;;;;;;;;;;;;;;5135472;27;20329;-83
2022/09/13 02:57:12;;;;;;;;;;;;;;;;;;5135039;27;19975;-83
2022/09/13 02:59:37;;;;;;;;;;;;;;;;;;5117277;28;19916;-83
2022/09/13 03:02:10;;;;;;;;;;;;;;;;;;5134530;28;19922;-84
2022/09/13 03:04:35;;;;;;;;;;;;;;;;;;5134176;28;19944;-82
2022/09/13 03:07:03;;;;;;;;;;;;;;;;;;5134431;28;19916;-83
2022/09/13 03:09:28;;;;;;;;;;;;;;;;;;5135283;27;19915;-84
2022/09/13 03:11:57;;;;;;;;;;;;;;;;;;5135355;27;19916;-83
2022/09/13 03:14:31;;;;;;;;;;;;;;;;;;5134012;28;20328;-85
2022/09/13 03:17:00;;;;;;;;;;;;;;;;;;5134155;28;20332;-84
2022/09/13 03:19:43;;;;;;;;;;;;;;;;;;5135102;27;19915;-83
2022/09/13 03:22:11;;;;;;;;;;;;;;;;;;5135225;28;19919;-84
2022/09/13 03:24:37;;;;;;;;;;;;;;;;;;5135149;27;20005;-84
2022/09/13 03:27:03;;;;;;;;;;;;;;;;;;5133867;28;19958;-84
2022/09/13 03:29:51;;;;;;;;;;;;;;;;;;5137662;27;19925;-84
2022/09/13 03:32:23;;;;;;;;;;;;;;;;;;5130326;27;19916;-83
2022/09/13 03:34:58;;;;;;;;;;;;;;;;;;5137911;27;19911;-84
2022/09/13 03:37:24;;;;;;;;;;;;;;;;;;5138965;27;19922;-84
2022/09/13 03:39:56;;;;;;;;;;;;;;;;;;5137214;27;19922;-84
2022/09/13 03:42:31;;;;;;;;;;;;;;;;;;5137496;27;19920;-84
2022/09/13 03:44:56;;;;;;;;;;;;;;;;;;5137494;27;19911;-83
2022/09/13 03:47:22;;;;;;;;;;;;;;;;;;5137350;27;19998;-83
2022/09/13 03:49:50;;;;;;;;;;;;;;;;;;5120573;27;19950;-83
2022/09/13 03:52:15;;;;;;;;;;;;;;;;;;5138539;27;19955;-84
2022/09/13 03:54:40;;;;;;;;;;;;;;;;;;5136964;27;19938;-83
2022/09/13 03:57:12;;;;;;;;;;;;;;;;;;5138328;27;19919;-83
2022/09/13 03:59:39;;;;;;;;;;;;;;;;;;5138589;27;19916;-83
2022/09/13 04:02:04;;;;;;;;;;;;;;;;;;5137120;27;19920;-84
2022/09/13 04:04:30;;;;;;;;;;;;;;;;;;5120227;27;20332;-84
2022/09/13 04:06:55;;;;;;;;;;;;;;;;;;5138564;27;19965;-84
2022/09/13 04:09:21;;;;;;;;;;;;;;;;;;5138187;27;19999;-84
2022/09/13 04:11:47;;;;;;;;;;;;;;;;;;5138103;27;19916;-83
2022/09/13 04:14:12;;;;;;;;;;;;;;;;;;5138686;27;19923;-83
2022/09/13 04:16:37;;;;;;;;;;;;;;;;;;5137999;27;20313;-84
2022/09/13 04:19:03;;;;;;;;;;;;;;;;;;5138583;27;19916;-83
2022/09/13 04:21:28;;;;;;;;;;;;;;;;;;5138024;27;19915;-83
2022/09/13 04:23:53;;;;;;;;;;;;;;;;;;5137756;27;19997;-84
2022/09/13 04:26:19;;;;;;;;;;;;;;;;;;5137910;27;20408;-83
2022/09/13 04:28:44;;;;;;;;;;;;;;;;;;5137730;27;19915;-83
2022/09/13 04:31:09;;;;;;;;;;;;;;;;;;5137802;27;19922;-83
2022/09/13 04:33:35;;;;;;;;;;;;;;;;;;5136580;27;19915;-83
2022/09/13 04:36:01;;;;;;;;;;;;;;;;;;5137613;27;19916;-83
2022/09/13 04:38:26;;;;;;;;;;;;;;;;;;5135973;27;20277;-83
2022/09/13 04:40:55;;;;;;;;;;;;;;;;;;5135647;27;19921;-84
2022/09/13 04:43:20;;;;;;;;;;;;;;;;;;5136237;27;20317;-83
2022/09/13 04:45:45;;;;;;;;;;;;;;;;;;5136395;27;19915;-83
2022/09/13 04:48:11;;;;;;;;;;;;;;;;;;5136156;27;19988;-83
2022/09/13 04:50:36;;;;;;;;;;;;;;;;;;5136234;27;20392;-83
2022/09/13 04:53:01;;;;;;;;;;;;;;;;;;5137057;27;20347;-84
2022/09/13 04:55:27;;;;;;;;;;;;;;;;;;5135897;27;19972;-83
2022/09/13 04:57:53;;;;;;;;;;;;;;;;;;5119244;27;20318;-83
2022/09/13 05:00:18;;;;;;;;;;;;;;;;;;5136489;27;19915;-83
2022/09/13 05:02:43;;;;;;;;;;;;;;;;;;5136241;27;19922;-84
2022/09/13 05:05:09;;;;;;;;;;;;;;;;;;5137088;27;20352;-84
2022/09/13 05:07:34;;;;;;;;;;;;;;;;;;5135764;27;19922;-84
2022/09/13 05:10:00;;;;;;;;;;;;;;;;;;5137043;27;19916;-84
2022/09/13 05:12:25;;;;;;;;;;;;;;;;;;5136209;27;19916;-83
2022/09/13 05:14:50;;;;;;;;;;;;;;;;;;5135686;27;20310;-83
2022/09/13 05:17:16;;;;;;;;;;;;;;;;;;5135630;27;20324;-84
2022/09/13 05:19:41;;;;;;;;;;;;;;;;;;5136618;27;19939;-83
2022/09/13 05:22:06;;;;;;;;;;;;;;;;;;5135213;27;20104;-85
2022/09/13 05:24:32;;;;;;;;;;;;;;;;;;5135579;27;20010;-84
2022/09/13 05:26:57;;;;;;;;;;;;;;;;;;5136757;27;19915;-84
2022/09/13 05:29:22;;;;;;;;;;;;;;;;;;5136710;27;19923;-85
2022/09/13 05:31:48;;;;;;;;;;;;;;;;;;5135313;27;19915;-84
2022/09/13 05:34:14;;;;;;;;;;;;;;;;;;5135254;27;19916;-84
2022/09/13 05:36:39;;;;;;;;;;;;;;;;;;5135263;27;19915;-84
2022/09/13 05:39:04;;;;;;;;;;;;;;;;;;5136305;27;19975;-85
2022/09/13 05:41:30;;;;;;;;;;;;;;;;;;5138218;27;19916;-84
2022/09/13 05:43:56;;;;;;;;;;;;;;;;;;5136730;27;19928;-83
2022/09/13 05:46:21;;;;;;;;;;;;;;;;;;5137076;27;19915;-84
2022/09/13 05:48:47;;;;;;;;;;;;;;;;;;5135381;27;20032;-79
2022/09/13 05:51:16;;;;;;;;;;;;;;;;;;5134563;27;19938;-79
2022/09/13 05:53:42;;;;;;;;;;;;;;;;;;5135510;27;19920;-80
2022/09/13 05:56:08;;;;;;;;;;;;;;;;;;5134707;27;19920;-79
2022/09/13 05:58:34;;;;;;;;;;;;;;;;;;5117971;27;19930;-79
2022/09/13 06:00:59;;;;;;;;;;;;;;;;;;5134747;27;20411;-81
2022/09/13 06:03:24;;;;;;;;;;;;;;;;;;5134661;27;19915;-81
2022/09/13 06:05:53;;;;;;;;;;;;;;;;;;5135707;27;19922;-81
2022/09/13 06:08:18;;;;;;;;;;;;;;;;;;5134861;27;19916;-80
2022/09/13 06:10:52;;;;;;;;;;;;;;;;;;5136058;27;19970;-80
2022/09/13 06:13:18;;;;;;;;;;;;;;;;;;5134997;27;19916;-80
2022/09/13 06:15:43;;;;;;;;;;;;;;;;;;5136438;27;20546;-79
2022/09/13 06:18:08;;;;;;;;;;;;;;;;;;5134721;27;20417;-79
2022/09/13 06:20:34;;;;;;;;;;;;;;;;;;5134892;27;19915;-80
2022/09/13 06:22:59;;;;;;;;;;;;;;;;;;5135978;27;19915;-80
2022/09/13 06:25:24;;;;;;;;;;;;;;;;;;5135747;27;19947;-80
2022/09/13 06:27:49;;;;;;;;;;;;;;;;;;5134365;27;19954;-80
2022/09/13 06:30:18;;;;;;;;;;;;;;;;;;5135707;27;20411;-78
2022/09/13 06:32:43;;;;;;;;;;;;;;;;;;5135037;28;20003;-80
2022/09/13 06:35:09;;;;;;;;;;;;;;;;;;5134105;28;20368;-80
2022/09/13 06:37:35;;;;;;;;;;;;;;;;;;5134238;28;19964;-80
2022/09/13 06:40:00;;;;;;;;;;;;;;;;;;5134415;28;19915;-81
2022/09/13 06:42:25;;;;;;;;;;;;;;;;;;5135595;27;19916;-80
2022/09/13 06:44:51;;;;;;;;;;;;;;;;;;5135568;27;19965;-81
2022/09/13 06:47:16;;;;;;;;;;;;;;;;;;5135422;27;20000;-80
2022/09/13 06:49:41;;;;;;;;;;;;;;;;;;5135333;28;20359;-80
2022/09/13 06:52:07;;;;;;;;;;;;;;;;;;5135849;27;19968;-81
2022/09/13 06:54:32;;;;;;;;;;;;;;;;;;5135441;27;19915;-80
2022/09/13 06:56:57;;;;;;;;;;;;;;;;;;5135801;27;19929;-82
2022/09/13 06:59:23;;;;;;;;;;;;;;;;;;5116966;28;19919;-80
2022/09/13 07:01:48;;;;;;;;;;;;;;;;;;5135462;27;19915;-80
2022/09/13 07:04:18;;;;;;;;;;;;;;;;;;5136097;27;19916;-78
2022/09/13 07:06:44;;;;;;;;;;;;;;;;;;5121723;27;19916;-80
2022/09/13 07:09:10;;;;;;;;;;;;;;;;;;5138871;27;20308;-79
2022/09/13 07:11:37;;;;;;;;;;;;;;;;;;5120978;27;19977;-78
2022/09/13 07:14:02;;;;;;;;;;;;;;;;;;5139386;27;19948;-79
2022/09/13 07:16:28;;;;;;;;;;;;;;;;;;5139019;27;19962;-79
2022/09/13 07:18:58;;;;;;;;;;;;;;;;;;5137706;27;19916;-79
2022/09/13 07:21:23;;;;;;;;;;;;;;;;;;5137752;27;20060;-77
2022/09/13 07:23:48;;;;;;;;;;;;;;;;;;5137841;27;19961;-79
2022/09/13 07:26:14;;;;;;;;;;;;;;;;;;5137814;27;19911;-78
2022/09/13 07:28:40;;;;;;;;;;;;;;;;;;5137759;27;19922;-80
2022/09/13 07:31:09;;;;;;;;;;;;;;;;;;5137969;27;20325;-79
2022/09/13 07:33:35;;;;;;;;;;;;;;;;;;5138739;27;19965;-79
2022/09/13 07:36:02;;;;;;;;;;;;;;;;;;5139045;27;20317;-80
2022/09/13 07:38:27;;;;;;;;;;;;;;;;;;5138641;27;20039;-78
2022/09/13 07:40:58;;;;;;;;;;;;;;;;;;5137519;27;20342;-79
2022/09/13 07:43:24;;;;;;;;;;;;;;;;;;5137613;27;19965;-79
2022/09/13 07:45:59;;;;;;;;;;;;;;;;;;5137123;27;19912;-80
2022/09/13 07:48:25;;;;;;;;;;;;;;;;;;5120851;27;19923;-77
2022/09/13 07:51:01;;;;;;;;;;;;;;;;;;5119847;27;19915;-79
2022/09/13 07:53:26;;;;;;;;;;;;;;;;;;5136967;27;19943;-78
2022/09/13 07:55:51;;;;;;;;;;;;;;;;;;5138546;27;20566;-78
2022/09/13 07:58:17;;;;;;;;;;;;;;;;;;5138136;27;19922;-78
2022/09/13 08:00:43;;;;;;;;;;;;;;;;;;5137809;27;19915;-79
2022/09/13 08:03:09;;;;;;;;;;;;;;;;;;5136737;27;19934;-78
2022/09/13 08:05:38;;;;;;;;;;;;;;;;;;5138273;27;20252;-79
2022/09/13 08:08:03;;;;;;;;;;;;;;;;;;5138295;27;19916;-78
2022/09/13 08:10:29;;;;;;;;;;;;;;;;;;5138423;27;19987;-79
2022/09/13 08:12:54;;;;;;;;;;;;;;;;;;5136838;27;20262;-77
2022/09/13 08:15:19;;;;;;;;;;;;;;;;;;5135589;27;19977;-78
2022/09/13 08:17:44;;;;;;;;;;;;;;;;;;5137915;27;19931;-79
2022/09/13 08:20:10;;;;;;;;;;;;;;;;;;5137758;27;19959;-78
2022/09/13 08:22:35;;;;;;;;;;;;;;;;;;5136538;27;20018;-78
2022/09/13 08:25:00;;;;;;;;;;;;;;;;;;5137791;27;20324;-77
2022/09/13 08:27:27;;;;;;;;;;;;;;;;;;5137536;27;19915;-77
2022/09/13 08:29:52;;;;;;;;;;;;;;;;;;5135828;27;19972;-78
2022/09/13 08:32:18;;;;;;;;;;;;;;;;;;5137536;27;20006;-77
2022/09/13 08:34:44;;;;;;;;;;;;;;;;;;5137618;27;19958;-78
2022/09/13 08:37:10;;;;;;;;;;;;;;;;;;5137596;27;19923;-77
2022/09/13 08:39:36;;;;;;;;;;;;;;;;;;5136592;27;20045;-78
2022/09/13 08:42:21;;;;;;;;;;;;;;;;;;5136501;27;19950;-78
2022/09/13 08:44:47;;;;;;;;;;;;;;;;;;5121635;27;19968;-77
2022/09/13 08:47:31;;;;;;;;;;;;;;;;;;5136251;27;19911;-78
2022/09/13 08:50:03;;;;;;;;;;;;;;;;;;5137980;27;20001;-80
2022/09/13 08:52:29;;;;;;;;;;;;;;;;;;5137893;27;19915;-79
2022/09/13 08:54:55;;;;;;;;;;;;;;;;;;5137199;27;19964;-80
2022/09/13 08:57:24;;;;;;;;;;;;;;;;;;5137020;27;19919;-78
2022/09/13 09:00:02;;;;;;;;;;;;;;;;;;5137087;27;19916;-80
2022/09/13 09:02:45;;;;;;;;;;;;;;;;;;5137286;27;20572;-79
2022/09/13 09:05:15;;;;;;;;;;;;;;;;;;5135451;27;19919;-78
2022/09/13 09:07:42;;;;;;;;;;;;;;;;;;5118700;27;19919;-78
2022/09/13 09:10:21;;;;;;;;;;;;;;;;;;5135858;27;20344;-80
2022/09/13 09:12:50;;;;;;;;;;;;;;;;;;5135743;27;20059;-79
2022/09/13 09:15:16;;;;;;;;;;;;;;;;;;5135748;27;19922;-79
2022/09/13 09:17:44;;;;;;;;;;;;;;;;;;5136943;27;19938;-81
2022/09/13 09:20:20;;;;;;;;;;;;;;;;;;5135751;27;19954;-78
2022/09/13 09:22:45;;;;;;;;;;;;;;;;;;5118728;27;19923;-78
2022/09/13 09:25:11;;;;;;;;;;;;;;;;;;5135887;27;19916;-78
2022/09/13 09:27:36;;;;;;;;;;;;;;;;;;5138667;27;19965;-77
2022/09/13 09:30:02;;;;;;;;;;;;;;;;;;5139358;27;19915;-78
2022/09/13 09:32:46;;;;;;;;;;;;;;;;;;5135576;27;20269;-79
2022/09/13 09:35:30;;;;;;;;;;;;;;;;;;5136578;27;20351;-79
2022/09/13 09:38:10;;;;;;;;;;;;;;;;;;5135529;27;20284;-78
2022/09/13 09:40:37;;;;;;;;;;;;;;;;;;5136655;27;20273;-79
2022/09/13 09:43:09;;;;;;;;;;;;;;;;;;5135032;27;19915;-80
2022/09/13 09:45:34;;;;;;;;;;;;;;;;;;5135169;27;19919;-78
2022/09/13 09:48:03;;;;;;;;;;;;;;;;;;5135273;27;19915;-78
2022/09/13 09:50:29;;;;;;;;;;;;;;;;;;5135545;27;19923;-78
2022/09/13 09:53:00;;;;;;;;;;;;;;;;;;5135644;27;19916;-78
2022/09/13 09:55:32;;;;;;;;;;;;;;;;;;5134824;27;20414;-82
2022/09/13 09:58:03;;;;;;;;;;;;;;;;;;5118821;27;19963;-88
2022/09/13 10:00:30;;;;;;;;;;;;;;;;;;5118843;27;19916;-78
2022/09/13 10:03:00;;;;;;;;;;;;;;;;;;5136069;27;19922;-82
2022/09/13 10:05:26;;;;;;;;;;;;;;;;;;5135068;27;19916;-81
2022/09/13 10:08:02;;;;;;;;;;;;;;;;;;5134513;27;20329;-80
2022/09/13 10:10:44;;;;;;;;;;;;;;;;;;5135093;27;19915;-81
2022/09/13 10:13:15;;;;;;;;;;;;;;;;;;5134986;27;19919;-79
2022/09/13 10:15:51;;;;;;;;;;;;;;;;;;5134627;27;20260;-79
2022/09/13 10:18:17;;;;;;;;;;;;;;;;;;5134822;27;19922;-80
2022/09/13 10:20:43;;;;;;;;;;;;;;;;;;5134950;27;19916;-79
2022/09/13 10:23:09;;;;;;;;;;;;;;;;;;5134535;27;19920;-80
2022/09/13 10:25:36;;;;;;;;;;;;;;;;;;5134312;27;20232;-80
2022/09/13 10:28:01;;;;;;;;;;;;;;;;;;5134399;27;19923;-79
2022/09/13 10:30:30;;;;;;;;;;;;;;;;;;5136173;27;20264;-80
2022/09/13 10:32:55;;;;;;;;;;;;;;;;;;5135923;27;19922;-80
2022/09/13 10:35:21;;;;;;;;;;;;;;;;;;5134666;28;20255;-79
2022/09/13 10:37:46;;;;;;;;;;;;;;;;;;5117708;28;20019;-79
2022/09/13 10:40:38;;;;;;;;;;;;;;;;;;5138347;27;19983;-79
2022/09/13 10:43:04;;;;;;;;;;;;;;;;;;5140378;27;19915;-80
2022/09/13 10:45:30;;;;;;;;;;;;;;;;;;5139891;27;19916;-79
2022/09/13 10:48:12;;;;;;;;;;;;;;;;;;5138827;27;19938;-79
2022/09/13 10:50:37;;;;;;;;;;;;;;;;;;5138675;27;19916;-78
2022/09/13 10:53:04;;;;;;;;;;;;;;;;;;5140159;27;20247;-79
2022/09/13 10:55:30;;;;;;;;;;;;;;;;;;5139451;27;19973;-80
2022/09/13 10:58:12;;;;;;;;;;;;;;;;;;5139779;27;19916;-79
2022/09/13 11:00:56;;;;;;;;;;;;;;;;;;5138814;27;20244;-79
2022/09/13 11:03:21;;;;;;;;;;;;;;;;;;5138671;27;19916;-79
2022/09/13 11:05:59;;;;;;;;;;;;;;;;;;5139911;27;20399;-80
2022/09/13 11:08:36;;;;;;;;;;;;;;;;;;5138554;27;19916;-79
2022/09/13 11:11:14;;;;;;;;;;;;;;;;;;5138050;27;20008;-79
2022/09/13 11:13:39;;;;;;;;;;;;;;;;;;5138342;27;19922;-78
2022/09/13 11:16:04;;;;;;;;;;;;;;;;;;5139866;27;20256;-79
2022/09/13 11:18:30;;;;;;;;;;;;;;;;;;5138323;27;19923;-79
2022/09/13 11:20:56;;;;;;;;;;;;;;;;;;5140090;27;19916;-79
2022/09/13 11:23:51;;;;;;;;;;;;;;;;;;5140237;27;19915;-80
2022/09/13 11:26:35;;;;;;;;;;;;;;;;;;5079446;27;19960;-79
2022/09/13 11:29:00;;;;;;;;;;;;;;;;;;5153416;27;19916;-80
2022/09/13 11:31:25;;;;;;;;;;;;;;;;;;5155039;27;19983;-79
2022/09/13 11:33:54;;;;;;;;;;;;;;;;;;5150912;27;19912;-79
2022/09/13 11:36:31;;;;;;;;;;;;;;;;;;5143197;27;19916;-80
2022/09/13 11:39:19;;;;;;;;;;;;;;;;;;5138768;27;19911;-80
2022/09/13 11:42:00;;;;;;;;;;;;;;;;;;5130403;27;20284;-79
2022/09/13 11:44:31;;;;;;;;;;;;;;;;;;5137870;27;19972;-80
2022/09/13 11:47:23;;;;;;;;;;;;;;;;;;5139234;27;20088;-79
2022/09/13 11:50:00;;;;;;;;;;;;;;;;;;5114590;27;20395;-79
2022/09/13 11:52:45;;;;;;;;;;;;;;;;;;5137221;27;19915;-79
2022/09/13 11:55:14;;;;;;;;;;;;;;;;;;5138659;27;19925;-79
2022/09/13 11:57:41;;;;;;;;;;;;;;;;;;5138751;27;20340;-80
2022/09/13 12:00:14;;;;;;;;;;;;;;;;;;5120368;27;19916;-78
2022/09/13 12:02:39;;;;;;;;;;;;;;;;;;5137580;27;19915;-79
2022/09/13 12:05:21;;;;;;;;;;;;;;;;;;5138698;27;19919;-78
2022/09/13 12:07:53;;;;;;;;;;;;;;;;;;5137491;27;19987;-80
2022/09/13 12:10:26;;;;;;;;;;;;;;;;;;5137225;27;19938;-79
2022/09/13 12:12:51;;;;;;;;;;;;;;;;;;5137085;27;20351;-79
2022/09/13 12:15:21;;;;;;;;;;;;;;;;;;5119843;27;19916;-79
2022/09/13 12:17:58;;;;;;;;;;;;;;;;;;5138170;27;20319;-79
2022/09/13 12:20:34;;;;;;;;;;;;;;;;;;5138642;27;19922;-78
2022/09/13 12:23:00;;;;;;;;;;;;;;;;;;5137913;27;19923;-79
2022/09/13 12:25:30;;;;;;;;;;;;;;;;;;5119873;27;19916;-79
2022/09/13 12:27:56;;;;;;;;;;;;;;;;;;5119853;27;19915;-78
2022/09/13 12:30:22;;;;;;;;;;;;;;;;;;5137894;27;20350;-78
2022/09/13 12:32:47;;;;;;;;;;;;;;;;;;5136957;27;19951;-79
2022/09/13 12:35:19;;;;;;;;;;;;;;;;;;5136650;27;20015;-78
2022/09/13 12:37:47;;;;;;;;;;;;;;;;;;5137581;27;19922;-78
2022/09/13 12:40:19;;;;;;;;;;;;;;;;;;5137863;27;19959;-79
2022/09/13 12:42:47;;;;;;;;;;;;;;;;;;5137851;27;19941;-78
2022/09/13 12:45:16;;;;;;;;;;;;;;;;;;5136306;27;19919;-78
2022/09/13 12:48:00;;;;;;;;;;;;;;;;;;5136136;27;19916;-80
2022/09/13 12:50:25;;;;;;;;;;;;;;;;;;5136175;27;19922;-79
2022/09/13 12:52:59;;;;;;;;;;;;;;;;;;5137348;27;19915;-79
2022/09/13 12:55:43;;;;;;;;;;;;;;;;;;5137246;27;19915;-79
2022/09/13 12:58:27;;;;;;;;;;;;;;;;;;5137265;27;19919;-78
2022/09/13 13:00:56;;;;;;;;;;;;;;;;;;5135521;27;19915;-79
2022/09/13 13:03:21;;;;;;;;;;;;;;;;;;5137209;27;20005;-79
2022/09/13 13:05:48;;;;;;;;;;;;;;;;;;5135642;27;19962;-79
2022/09/13 13:08:19;;;;;;;;;;;;;;;;;;5118753;27;20004;-80
2022/09/13 13:10:44;;;;;;;;;;;;;;;;;;5136943;27;20309;-79
2022/09/13 13:13:13;;;;;;;;;;;;;;;;;;5136932;27;20018;-80
2022/09/13 13:15:42;;;;;;;;;;;;;;;;;;5136855;27;19915;-79
2022/09/13 13:18:21;;;;;;;;;;;;;;;;;;5136804;27;19915;-78
2022/09/13 13:21:04;;;;;;;;;;;;;;;;;;5136553;27;20018;-79
2022/09/13 13:23:30;;;;;;;;;;;;;;;;;;5135731;27;19915;-79
2022/09/13 13:25:55;;;;;;;;;;;;;;;;;;5136507;27;19938;-79
2022/09/13 13:28:39;;;;;;;;;;;;;;;;;;5135831;27;20318;-80
2022/09/13 13:31:06;;;;;;;;;;;;;;;;;;5136498;27;19923;-79
2022/09/13 13:33:41;;;;;;;;;;;;;;;;;;5136357;27;19922;-79
2022/09/13 13:36:22;;;;;;;;;;;;;;;;;;5134809;27;19922;-79
2022/09/13 13:38:48;;;;;;;;;;;;;;;;;;5136126;27;19923;-79
2022/09/13 13:41:28;;;;;;;;;;;;;;;;;;5136626;27;19916;-79
2022/09/13 13:43:54;;;;;;;;;;;;;;;;;;5136684;27;19923;-79
2022/09/13 13:46:22;;;;;;;;;;;;;;;;;;5135086;27;19915;-80
2022/09/13 13:48:47;;;;;;;;;;;;;;;;;;5134603;27;20002;-79
2022/09/13 13:51:13;;;;;;;;;;;;;;;;;;5134971;27;19947;-79
2022/09/13 13:53:41;;;;;;;;;;;;;;;;;;5136254;27;19916;-79
2022/09/13 13:56:23;;;;;;;;;;;;;;;;;;5136132;27;19950;-80
2022/09/13 13:58:59;;;;;;;;;;;;;;;;;;5135295;27;19930;-79
2022/09/13 14:01:26;;;;;;;;;;;;;;;;;;5135156;27;19915;-79
2022/09/13 14:04:10;;;;;;;;;;;;;;;;;;5117758;27;19980;-79
2022/09/13 14:06:38;;;;;;;;;;;;;;;;;;5136130;27;19915;-79
2022/09/13 14:09:18;;;;;;;;;;;;;;;;;;5135958;27;20301;-80
2022/09/13 14:11:55;;;;;;;;;;;;;;;;;;5135847;27;19915;-78
2022/09/13 14:14:23;;;;;;;;;;;;;;;;;;5135116;27;19919;-80
2022/09/13 14:17:08;;;;;;;;;;;;;;;;;;5135909;27;19927;-79
2022/09/13 14:19:37;;;;;;;;;;;;;;;;;;5135807;27;19920;-80
2022/09/13 14:22:18;;;;;;;;;;;;;;;;;;5135789;27;19939;-79
2022/09/13 14:24:47;;;;;;;;;;;;;;;;;;5117739;27;20236;-79
2022/09/13 14:27:14;;;;;;;;;;;;;;;;;;5135927;27;19915;-78
2022/09/13 14:29:41;;;;;;;;;;;;;;;;;;5134565;27;19923;-83
2022/09/13 14:32:10;;;;;;;;;;;;;;;;;;5134398;27;19931;-82
2022/09/13 14:34:37;;;;;;;;;;;;;;;;;;5134378;28;20004;-80
2022/09/13 14:37:03;;;;;;;;;;;;;;;;;;5135632;27;20251;-81
2022/09/13 14:39:29;;;;;;;;;;;;;;;;;;5135483;27;20254;-79
2022/09/13 14:41:59;;;;;;;;;;;;;;;;;;5135893;27;19973;-79
2022/09/13 14:44:24;;;;;;;;;;;;;;;;;;5117489;28;19918;-81
2022/09/13 14:46:56;;;;;;;;;;;;;;;;;;5134017;28;19923;-81
2022/09/13 14:49:24;;;;;;;;;;;;;;;;;;5134604;28;20313;-81
2022/09/13 14:51:51;;;;;;;;;;;;;;;;;;5134601;28;19921;-80
2022/09/13 14:54:36;;;;;;;;;;;;;;;;;;5117695;28;20002;-80
2022/09/13 14:57:01;;;;;;;;;;;;;;;;;;5135221;27;20017;-81
2022/09/13 14:59:27;;;;;;;;;;;;;;;;;;5134119;28;20025;-81
2022/09/13 15:01:52;;;;;;;;;;;;;;;;;;5135133;27;20312;-80
2022/09/13 15:04:18;;;;;;;;;;;;;;;;;;5135740;27;19945;-80
2022/09/13 15:06:43;;;;;;;;;;;;;;;;;;5134103;28;19933;-81
2022/09/13 15:09:09;;;;;;;;;;;;;;;;;;5134719;28;19916;-80
2022/09/13 15:11:35;;;;;;;;;;;;;;;;;;5135623;27;20325;-81
2022/09/13 15:14:20;;;;;;;;;;;;;;;;;;5117194;28;19916;-80
2022/09/13 15:16:49;;;;;;;;;;;;;;;;;;5124226;27;19938;-80
2022/09/13 15:19:28;;;;;;;;;;;;;;;;;;5135249;27;19922;-80
2022/09/13 15:22:01;;;;;;;;;;;;;;;;;;5116769;28;20332;-81
2022/09/13 15:24:30;;;;;;;;;;;;;;;;;;5134936;27;19911;-80
2022/09/13 15:27:03;;;;;;;;;;;;;;;;;;5138123;27;19915;-80
2022/09/13 15:29:33;;;;;;;;;;;;;;;;;;5137777;27;20000;-80
2022/09/13 15:31:58;;;;;;;;;;;;;;;;;;5137600;27;19923;-79
2022/09/13 15:34:24;;;;;;;;;;;;;;;;;;5138983;27;19912;-80
2022/09/13 15:37:08;;;;;;;;;;;;;;;;;;5139181;27;19935;-80
2022/09/13 15:39:43;;;;;;;;;;;;;;;;;;5138725;27;20017;-80
2022/09/13 15:42:09;;;;;;;;;;;;;;;;;;5137918;27;19915;-80
2022/09/13 15:44:34;;;;;;;;;;;;;;;;;;5138547;27;19968;-79
2022/09/13 15:47:03;;;;;;;;;;;;;;;;;;5120375;27;20051;-79
2022/09/13 15:49:29;;;;;;;;;;;;;;;;;;5138649;27;19918;-80
2022/09/13 15:51:55;;;;;;;;;;;;;;;;;;5138687;27;19920;-80
2022/09/13 15:54:21;;;;;;;;;;;;;;;;;;5137332;27;19923;-79
2022/09/13 15:56:48;;;;;;;;;;;;;;;;;;5138428;27;20233;-80
2022/09/13 15:59:13;;;;;;;;;;;;;;;;;;5137029;27;20109;-80
2022/09/13 16:01:39;;;;;;;;;;;;;;;;;;5137337;27;19947;-80
2022/09/13 16:04:05;;;;;;;;;;;;;;;;;;5138762;27;19912;-80
2022/09/13 16:06:30;;;;;;;;;;;;;;;;;;5137409;27;20055;-80
2022/09/13 16:08:56;;;;;;;;;;;;;;;;;;5137082;27;19960;-80
2022/09/13 16:11:21;;;;;;;;;;;;;;;;;;5137046;27;20244;-80
2022/09/13 16:13:46;;;;;;;;;;;;;;;;;;5136741;27;19919;-81
2022/09/13 16:16:12;;;;;;;;;;;;;;;;;;5138284;27;19915;-78
2022/09/13 16:18:38;;;;;;;;;;;;;;;;;;5137104;27;19919;-80
2022/09/13 16:21:04;;;;;;;;;;;;;;;;;;5138221;27;19958;-80
2022/09/13 16:23:29;;;;;;;;;;;;;;;;;;5137724;27;19916;-80
2022/09/13 16:25:56;;;;;;;;;;;;;;;;;;5138021;27;19915;-80
2022/09/13 16:28:21;;;;;;;;;;;;;;;;;;5136635;27;20006;-80
2022/09/13 16:30:47;;;;;;;;;;;;;;;;;;5137931;27;19954;-80
2022/09/13 16:33:12;;;;;;;;;;;;;;;;;;5138205;27;19922;-80
2022/09/13 16:35:37;;;;;;;;;;;;;;;;;;5118686;28;20023;-80
2022/09/13 16:38:03;;;;;;;;;;;;;;;;;;5137787;27;20369;-80
2022/09/13 16:40:28;;;;;;;;;;;;;;;;;;5137885;27;19915;-80
2022/09/13 16:42:53;;;;;;;;;;;;;;;;;;5136199;27;19915;-80
2022/09/13 16:45:19;;;;;;;;;;;;;;;;;;5136754;27;20315;-80
2022/09/13 16:47:44;;;;;;;;;;;;;;;;;;5136390;27;20250;-81
2022/09/13 16:50:09;;;;;;;;;;;;;;;;;;5137512;27;20019;-80
2022/09/13 16:52:35;;;;;;;;;;;;;;;;;;5119022;27;19915;-80
2022/09/13 16:55:00;;;;;;;;;;;;;;;;;;5136317;27;19916;-80
2022/09/13 16:57:26;;;;;;;;;;;;;;;;;;5135955;27;19926;-80